createdAt,value
2023-05-06T00:01:26.135Z,11.20
2023-05-06T00:07:28.069Z,10.90
2023-05-06T00:13:30.032Z,10.80
2023-05-06T00:19:34.292Z,10.80
2023-05-06T00:25:37.237Z,11.00
2023-05-06T00:31:39.056Z,11.10
2023-05-06T00:37:44.727Z,11.20
2023-05-06T00:43:46.667Z,11.30
2023-05-06T00:49:49.973Z,11.50
2023-05-06T00:55:52.128Z,11.60
2023-05-06T01:01:54.172Z,11.60
2023-05-06T01:08:11.040Z,11.50
2023-05-06T01:14:27.373Z,11.40
2023-05-06T01:20:31.814Z,11.40
2023-05-06T01:26:36.092Z,11.50
2023-05-06T01:33:18.987Z,11.60
2023-05-06T01:39:25.509Z,11.70
2023-05-06T01:45:30.903Z,11.60
2023-05-06T01:51:34.250Z,11.70
2023-05-06T01:57:37.076Z,11.70
2023-05-06T02:03:39.001Z,11.80
2023-05-06T02:09:41.027Z,11.80
2023-05-06T02:15:42.969Z,11.80
2023-05-06T02:21:50.499Z,11.80
2023-05-06T02:27:52.316Z,11.80
2023-05-06T02:33:54.120Z,11.80
2023-05-06T02:39:55.981Z,11.80
2023-05-06T02:45:57.857Z,11.80
2023-05-06T02:52:00.797Z,11.80
2023-05-06T02:58:02.622Z,11.80
2023-05-06T03:04:05.071Z,11.80
2023-05-06T03:10:07.378Z,11.70
2023-05-06T03:16:15.328Z,11.60
2023-05-06T03:22:20.702Z,11.50
2023-05-06T03:28:22.601Z,11.50
2023-05-06T03:34:25.116Z,11.50
2023-05-06T03:40:27.176Z,11.50
2023-05-06T03:46:30.012Z,11.50
2023-05-06T03:52:32.068Z,11.40
2023-05-06T03:58:35.336Z,11.30
2023-05-06T04:04:39.069Z,11.30
2023-05-06T04:10:41.271Z,11.20
2023-05-06T04:16:50.880Z,11.20
2023-05-06T04:22:52.673Z,11.10
2023-05-06T04:28:55.913Z,11.00
2023-05-06T04:34:58.963Z,11.00
2023-05-06T04:41:00.786Z,11.10
2023-05-06T04:47:02.761Z,11.20
2023-05-06T04:53:04.985Z,11.30
2023-05-06T04:59:07.638Z,11.30
2023-05-06T05:05:10.758Z,11.30
2023-05-06T05:11:14.078Z,11.20
2023-05-06T05:17:16.442Z,11.10
2023-05-06T05:23:20.068Z,11.00
2023-05-06T05:29:22.232Z,11.00
2023-05-06T05:35:24.214Z,11.10
2023-05-06T05:41:28.194Z,11.60
2023-05-06T05:47:30.702Z,12.30
2023-05-06T05:53:32.592Z,13.20
2023-05-06T05:59:34.616Z,13.50
2023-05-06T06:05:39.425Z,13.90
2023-05-06T06:11:41.961Z,14.20
2023-05-06T06:17:44.258Z,14.20
2023-05-06T06:23:46.769Z,14.00
2023-05-06T06:29:49.845Z,13.80
2023-05-06T06:35:51.765Z,13.90
2023-05-06T06:41:56.771Z,14.20
2023-05-06T06:47:58.646Z,14.30
2023-05-06T06:54:00.394Z,14.30
2023-05-06T07:00:02.180Z,14.50
2023-05-06T07:06:04.228Z,14.60
2023-05-06T07:12:09.045Z,14.70
2023-05-06T07:18:11.009Z,14.70
2023-05-06T07:24:12.840Z,14.80
2023-05-06T07:30:16.185Z,15.10
2023-05-06T07:36:17.961Z,15.60
2023-05-06T07:42:19.750Z,15.70
2023-05-06T07:48:21.556Z,15.70
2023-05-06T07:54:23.292Z,15.90
2023-05-06T08:00:25.164Z,16.00
2023-05-06T08:06:27.155Z,16.10
2023-05-06T08:12:28.944Z,16.30
2023-05-06T08:18:30.969Z,16.50
2023-05-06T08:24:32.886Z,16.80
2023-05-06T08:30:34.721Z,17.00
2023-05-06T08:36:36.589Z,17.20
2023-05-06T08:42:39.468Z,17.30
2023-05-06T08:48:41.798Z,17.40
2023-05-06T08:54:44.430Z,17.70
2023-05-06T09:00:46.633Z,18.00
2023-05-06T09:06:48.454Z,18.20
2023-05-06T09:12:53.560Z,18.30
2023-05-06T09:18:55.746Z,18.30
2023-05-06T09:24:58.676Z,18.10
2023-05-06T09:31:03.172Z,18.20
2023-05-06T09:37:05.461Z,18.00
2023-05-06T09:43:08.934Z,18.30
2023-05-06T09:49:11.573Z,18.90
2023-05-06T09:55:14.157Z,19.10
2023-05-06T10:01:25.210Z,19.50
2023-05-06T10:07:36.029Z,19.40
2023-05-06T10:13:40.353Z,19.00
2023-05-06T10:19:52.259Z,19.00
2023-05-06T10:25:57.002Z,19.40
2023-05-06T10:32:00.711Z,19.50
2023-05-06T10:38:05.029Z,19.50
2023-05-06T10:44:07.076Z,19.90
2023-05-06T10:50:18.769Z,19.60
2023-05-06T10:56:21.798Z,20.00
2023-05-06T11:02:24.127Z,21.10
2023-05-06T11:08:27.129Z,21.20
2023-05-06T11:14:36.769Z,21.30
2023-05-06T11:20:38.552Z,21.40
2023-05-06T11:26:40.968Z,21.20
2023-05-06T11:32:43.325Z,21.60
2023-05-06T11:38:51.239Z,21.80
2023-05-06T11:45:02.237Z,21.90
2023-05-06T11:51:04.073Z,21.90
2023-05-06T11:57:06.054Z,21.70
2023-05-06T12:03:14.677Z,21.30
2023-05-06T12:09:16.827Z,21.90
2023-05-06T12:15:18.769Z,21.70
2023-05-06T12:21:24.647Z,21.30
2023-05-06T12:27:45.561Z,21.60
2023-05-06T12:40:18.693Z,22.40
2023-05-06T12:46:21.655Z,21.80
2023-05-06T12:52:45.657Z,21.40
2023-05-06T12:59:01.415Z,22.00
2023-05-06T13:05:03.736Z,21.80
2023-05-06T13:23:33.961Z,22.70
2023-05-06T13:29:35.846Z,22.80
2023-05-06T13:35:37.630Z,22.80
2023-05-06T13:41:39.419Z,22.90
2023-05-06T13:47:43.028Z,23.20
2023-05-06T13:53:44.882Z,23.40
2023-05-06T13:59:46.649Z,23.50
2023-05-06T14:05:48.646Z,23.40
2023-05-06T14:11:50.429Z,22.60
2023-05-06T14:17:52.254Z,22.00
2023-05-06T14:23:54.099Z,21.60
2023-05-06T14:29:55.875Z,21.60
2023-05-06T14:35:58.359Z,21.70
2023-05-06T14:42:00.124Z,21.20
2023-05-06T14:48:02.232Z,21.20
2023-05-06T14:54:04.255Z,21.50
2023-05-06T15:00:10.211Z,21.60
2023-05-06T15:06:12.581Z,22.10
2023-05-06T15:12:14.472Z,22.00
2023-05-06T15:18:16.412Z,21.90
2023-05-06T15:24:18.282Z,22.20
2023-05-06T15:30:20.321Z,22.30
2023-05-06T15:36:22.132Z,22.40
2023-05-06T15:42:23.911Z,22.60
2023-05-06T16:14:56.986Z,21.90
2023-05-06T16:20:58.777Z,21.50
2023-05-06T16:27:01.064Z,21.30
2023-05-06T16:33:04.135Z,21.20
2023-05-06T16:39:06.981Z,21.50
2023-05-06T16:45:09.051Z,21.80
2023-05-06T16:51:12.327Z,21.50
2023-05-06T16:57:14.229Z,20.60
2023-05-06T17:03:16.551Z,20.00
2023-05-06T17:09:18.554Z,19.40
2023-05-06T17:15:21.377Z,19.00
2023-05-06T17:21:23.770Z,19.10
2023-05-06T17:27:25.630Z,18.80
2023-05-06T17:33:27.440Z,18.40
2023-05-06T17:39:29.266Z,18.50
2023-05-06T17:45:31.228Z,18.60
2023-05-06T17:51:33.036Z,18.60
2023-05-06T17:57:34.936Z,18.30
2023-05-06T18:03:39.012Z,18.10
2023-05-06T18:09:40.925Z,17.70
2023-05-06T18:15:43.402Z,17.30
2023-05-06T18:21:45.992Z,17.10
2023-05-06T18:27:48.304Z,16.80
2023-05-06T18:33:50.154Z,16.60
2023-05-06T18:39:51.941Z,16.20
2023-05-06T18:45:53.833Z,16.00
2023-05-06T18:51:56.143Z,15.60
2023-05-06T18:57:58.031Z,15.30
2023-05-06T19:03:59.949Z,15.10
2023-05-06T19:10:02.221Z,14.70
2023-05-06T19:16:04.144Z,14.50
2023-05-06T19:22:06.037Z,14.30
2023-05-06T19:28:09.497Z,14.20
2023-05-06T19:34:11.267Z,14.00
2023-05-06T19:40:13.112Z,13.80
2023-05-06T19:46:16.317Z,13.80
2023-05-06T19:52:18.547Z,13.60
2023-05-06T19:58:20.366Z,13.40
2023-05-06T20:04:22.318Z,13.10
2023-05-06T20:10:24.247Z,13.00
2023-05-06T20:16:26.193Z,12.80
2023-05-06T20:22:28.140Z,12.60
2023-05-06T20:28:31.453Z,12.50
2023-05-06T20:34:33.299Z,12.30
2023-05-06T20:40:35.973Z,12.20
2023-05-06T20:46:37.806Z,12.10
2023-05-06T20:52:39.602Z,12.00
2023-05-06T20:58:41.883Z,11.90
2023-05-06T21:04:46.198Z,11.90
2023-05-06T21:10:48.194Z,12.00
2023-05-06T21:16:50.570Z,12.10
2023-05-06T21:22:52.619Z,12.20
2023-05-06T21:28:54.474Z,12.30
2023-05-06T21:34:56.452Z,12.40
2023-05-06T21:40:58.493Z,12.40
2023-05-06T21:47:00.417Z,12.30
2023-05-06T21:53:03.751Z,12.30
2023-05-06T21:59:06.519Z,12.40
2023-05-06T22:05:08.892Z,12.40
2023-05-06T22:11:11.113Z,12.30
2023-05-06T22:17:12.943Z,12.40
2023-05-06T22:23:15.378Z,12.30
2023-05-06T22:29:17.260Z,12.30
2023-05-06T22:35:19.141Z,12.20
2023-05-06T22:41:21.560Z,12.20
2023-05-06T22:47:23.388Z,12.20
2023-05-06T22:53:25.274Z,12.30
2023-05-06T22:59:27.723Z,12.20
2023-05-06T23:05:29.493Z,12.10
2023-05-06T23:11:31.223Z,12.10
2023-05-06T23:17:33.162Z,12.10
2023-05-06T23:23:35.092Z,12.10
2023-05-06T23:29:36.843Z,12.00
2023-05-06T23:35:38.648Z,12.00
2023-05-06T23:41:40.646Z,12.00
2023-05-06T23:47:42.482Z,12.00
2023-05-06T23:53:44.348Z,11.90
2023-05-06T23:59:46.091Z,11.90
